Time;durP1;ratioP1;P1;durP2;ratioP2;P2;SDS_P1;SDS_P2;PMS_P1;PMS_P2;Temp;Humidity;BMP_temperature;BMP_pressure;BME280_temperature;BME280_humidity;BME280_pressure;Samples;Min_cycle;Max_cycle;Signal;HPM_P1;HPM_P2
2023/04/18 00:01:13;;;;;;;12.50;9.43;;;7.80;99.90;;;;;;5004253;28;20132;-55
2023/04/18 00:03:39;;;;;;;15.05;10.15;;;7.80;99.90;;;;;;5005203;28;20041;-56
2023/04/18 00:06:05;;;;;;;15.10;11.07;;;7.70;99.90;;;;;;5006191;28;20057;-58
2023/04/18 00:08:32;;;;;;;13.00;10.57;;;7.70;99.90;;;;;;5005294;28;20050;-54
2023/04/18 00:10:57;;;;;;;14.10;10.43;;;7.70;99.90;;;;;;5005404;28;20116;-53
2023/04/18 00:13:23;;;;;;;13.57;10.85;;;7.70;99.90;;;;;;5005128;28;20469;-52
2023/04/18 00:15:52;;;;;;;13.68;10.48;;;7.60;99.90;;;;;;5004850;28;20054;-55
2023/04/18 00:18:19;;;;;;;13.85;10.45;;;7.80;99.90;;;;;;5005102;28;20581;-57
2023/04/18 00:20:45;;;;;;;14.27;10.55;;;7.70;99.90;;;;;;5005081;28;20128;-56
2023/04/18 00:23:12;;;;;;;12.65;9.45;;;7.60;99.90;;;;;;4986681;28;20686;-56
2023/04/18 00:25:39;;;;;;;14.75;10.00;;;7.50;99.90;;;;;;5003883;28;20053;-56
2023/04/18 00:28:04;;;;;;;17.13;10.40;;;7.50;99.90;;;;;;5004088;28;20049;-54
2023/04/18 00:30:30;;;;;;;11.50;9.90;;;7.50;99.90;;;;;;5004189;28;20029;-53
2023/04/18 00:32:56;;;;;;;14.57;10.50;;;7.50;99.90;;;;;;5003574;28;20042;-52
2023/04/18 00:35:22;;;;;;;13.35;10.57;;;7.40;99.90;;;;;;5005100;28;20094;-51
2023/04/18 00:37:48;;;;;;;13.60;10.15;;;7.40;99.90;;;;;;5006000;28;20077;-55
2023/04/18 00:40:13;;;;;;;12.77;9.73;;;7.40;99.90;;;;;;5005499;28;20476;-57
2023/04/18 00:42:39;;;;;;;12.55;9.38;;;7.40;99.90;;;;;;5004996;28;20070;-51
2023/04/18 00:45:05;;;;;;;13.80;9.52;;;7.30;99.90;;;;;;5004735;28;20136;-56
2023/04/18 00:47:30;;;;;;;11.60;9.95;;;7.30;99.90;;;;;;5004358;28;20453;-57
2023/04/18 00:49:57;;;;;;;12.48;9.35;;;7.50;99.90;;;;;;5006259;28;20110;-58
2023/04/18 00:52:26;;;;;;;12.63;9.38;;;7.30;99.90;;;;;;5008915;28;20068;-50
2023/04/18 00:54:52;;;;;;;14.13;9.60;;;7.30;99.90;;;;;;5009334;28;20045;-52
2023/04/18 00:57:18;;;;;;;11.80;10.10;;;7.30;99.90;;;;;;5008919;28;20117;-55
2023/04/18 00:59:45;;;;;;;13.02;9.50;;;7.20;99.90;;;;;;5008549;28;20780;-52
2023/04/18 01:02:11;;;;;;;13.80;10.07;;;7.30;99.90;;;;;;5007996;28;20128;-60
2023/04/18 01:04:37;;;;;;;11.57;9.65;;;7.20;99.90;;;;;;5008966;28;20168;-55
2023/04/18 01:07:03;;;;;;;11.35;9.57;;;7.40;99.90;;;;;;5008372;28;20068;-60
2023/04/18 01:09:29;;;;;;;12.13;9.52;;;7.20;99.90;;;;;;5008899;28;20052;-54
2023/04/18 01:11:55;;;;;;;13.32;9.88;;;7.10;99.90;;;;;;5008733;28;20053;-58
2023/04/18 01:14:21;;;;;;;13.90;9.65;;;7.20;99.90;;;;;;5008336;28;20228;-58
2023/04/18 01:16:50;;;;;;;13.13;10.25;;;7.20;99.90;;;;;;5007191;28;20125;-59
2023/04/18 01:19:16;;;;;;;13.60;9.85;;;7.60;99.90;;;;;;5008419;28;20034;-59
2023/04/18 01:21:44;;;;;;;14.55;10.52;;;7.30;99.90;;;;;;5008199;28;20084;-47
2023/04/18 01:24:15;;;;;;;13.10;10.10;;;7.20;99.90;;;;;;4990802;28;20053;-59
2023/04/18 01:26:42;;;;;;;13.18;9.32;;;7.30;99.90;;;;;;5007994;28;20050;-57
2023/04/18 01:29:08;;;;;;;14.30;10.73;;;7.50;99.90;;;;;;5008100;28;20046;-58
2023/04/18 01:31:37;;;;;;;15.57;10.98;;;7.40;99.90;;;;;;5006510;28;20049;-55
2023/04/18 01:34:04;;;;;;;15.38;10.77;;;7.20;99.90;;;;;;5007907;28;20200;-52
2023/04/18 01:36:30;;;;;;;14.13;10.45;;;7.20;99.90;;;;;;5008501;28;20092;-54
2023/04/18 01:38:57;;;;;;;14.23;10.57;;;7.20;99.90;;;;;;5008005;28;20507;-54
2023/04/18 01:41:23;;;;;;;12.68;10.32;;;7.20;99.90;;;;;;5006947;28;20058;-53
2023/04/18 01:43:48;;;;;;;12.35;10.18;;;7.30;99.90;;;;;;5007769;28;20168;-57
2023/04/18 01:46:15;;;;;;;13.27;10.68;;;7.20;99.90;;;;;;5006673;28;20149;-59
2023/04/18 01:48:41;;;;;;;14.18;10.63;;;7.20;99.90;;;;;;5008226;28;20050;-59
2023/04/18 01:51:07;;;;;;;13.70;10.73;;;7.20;99.90;;;;;;5007301;28;20061;-48
2023/04/18 01:53:32;;;;;;;13.27;10.52;;;7.20;99.90;;;;;;5007703;28;20050;-60
2023/04/18 01:55:58;;;;;;;16.27;11.02;;;7.20;99.90;;;;;;5007472;28;20124;-58
2023/04/18 01:58:25;;;;;;;12.98;10.68;;;7.20;99.90;;;;;;5008114;28;20053;-52
2023/04/18 02:00:52;;;;;;;13.77;10.07;;;7.30;99.90;;;;;;5005955;28;20047;-60
2023/04/18 02:03:18;;;;;;;15.43;10.65;;;7.20;99.90;;;;;;5006725;28;20123;-59
2023/04/18 02:05:44;;;;;;;12.52;10.30;;;7.20;99.90;;;;;;5007150;28;20378;-52
2023/04/18 02:08:10;;;;;;;13.65;10.25;;;7.30;99.90;;;;;;5007457;28;20042;-60
2023/04/18 02:10:36;;;;;;;15.82;10.73;;;7.20;99.90;;;;;;5006454;28;20038;-52
2023/04/18 02:13:02;;;;;;;14.32;10.90;;;7.50;99.90;;;;;;5007422;28;20127;-59
2023/04/18 02:15:28;;;;;;;14.55;10.95;;;7.30;99.90;;;;;;5006957;28;20085;-51
2023/04/18 02:17:54;;;;;;;12.00;9.77;;;7.20;99.90;;;;;;5007438;28;20042;-52
2023/04/18 02:20:20;;;;;;;12.88;10.20;;;7.30;99.90;;;;;;5007167;28;20112;-53
2023/04/18 02:22:46;;;;;;;12.82;10.43;;;7.20;99.90;;;;;;5007646;28;20057;-54
2023/04/18 02:25:12;;;;;;;13.27;9.60;;;7.20;99.90;;;;;;5007374;28;20057;-50
2023/04/18 02:27:38;;;;;;;11.85;9.70;;;8.70;99.90;;;;;;5007192;28;20065;-51
2023/04/18 02:30:05;;;;;;;12.18;9.43;;;7.60;99.90;;;;;;5006085;28;20104;-56
2023/04/18 02:32:31;;;;;;;13.40;9.52;;;7.20;99.90;;;;;;5006220;28;20440;-58
2023/04/18 02:34:56;;;;;;;12.52;9.40;;;7.20;99.90;;;;;;5007488;28;20045;-52
2023/04/18 02:37:22;;;;;;;12.75;9.52;;;7.20;99.90;;;;;;5006921;28;20046;-55
2023/04/18 02:39:48;;;;;;;11.82;9.57;;;7.20;99.90;;;;;;5004884;28;20050;-58
2023/04/18 02:42:13;;;;;;;13.00;9.98;;;7.20;99.90;;;;;;5006574;28;20104;-59
2023/04/18 02:44:39;;;;;;;11.50;9.38;;;7.20;99.90;;;;;;5006002;28;20642;-49
2023/04/18 02:47:04;;;;;;;12.20;8.88;;;7.20;99.90;;;;;;5006262;28;20686;-60
2023/04/18 02:49:31;;;;;;;11.68;8.77;;;7.10;99.90;;;;;;5006559;28;20045;-57
2023/04/18 02:51:56;;;;;;;13.38;9.15;;;7.20;99.90;;;;;;5006586;28;20053;-55
2023/04/18 02:54:23;;;;;;;12.13;8.95;;;7.20;99.90;;;;;;5005851;28;20122;-60
2023/04/18 02:56:51;;;;;;;11.35;9.07;;;7.20;99.90;;;;;;5006750;28;20515;-58
2023/04/18 02:59:17;;;;;;;12.50;9.48;;;7.30;99.90;;;;;;5006822;28;20083;-57
2023/04/18 03:01:43;;;;;;;13.57;9.15;;;7.20;99.90;;;;;;5005814;28;20887;-59
2023/04/18 03:04:08;;;;;;;13.57;8.82;;;7.20;99.90;;;;;;5006540;28;20048;-54
2023/04/18 03:06:34;;;;;;;13.25;9.10;;;7.10;99.90;;;;;;5006516;28;20048;-57
2023/04/18 03:08:59;;;;;;;10.55;8.20;;;7.20;99.90;;;;;;5005364;28;20559;-54
2023/04/18 03:11:25;;;;;;;10.65;8.27;;;7.20;99.90;;;;;;5006597;28;20042;-56
2023/04/18 03:13:52;;;;;;;11.60;8.68;;;7.20;99.90;;;;;;5006650;28;20054;-56
2023/04/18 03:16:18;;;;;;;11.05;8.90;;;7.50;99.90;;;;;;5004608;28;20046;-51
2023/04/18 03:18:43;;;;;;;10.68;8.20;;;7.20;99.90;;;;;;5006634;28;20045;-56
2023/04/18 03:21:10;;;;;;;12.13;8.25;;;7.20;99.90;;;;;;5005935;28;20503;-59
2023/04/18 03:23:36;;;;;;;10.43;7.95;;;7.20;99.90;;;;;;5006228;28;20396;-56
2023/04/18 03:26:01;;;;;;;10.30;7.72;;;7.30;99.90;;;;;;5005454;28;20038;-47
2023/04/18 03:28:27;;;;;;;10.23;8.48;;;7.20;99.90;;;;;;5006724;28;20065;-59
2023/04/18 03:30:52;;;;;;;10.80;7.95;;;7.10;99.90;;;;;;5005230;28;20049;-60
2023/04/18 03:33:18;;;;;;;10.27;7.95;;;7.20;99.90;;;;;;4994137;28;20131;-47
2023/04/18 03:35:44;;;;;;;9.90;7.82;;;7.10;99.90;;;;;;4986053;28;20108;-59
2023/04/18 03:38:09;;;;;;;10.70;8.13;;;7.10;99.90;;;;;;4986461;28;20035;-59
2023/04/18 03:40:35;;;;;;;10.57;7.78;;;7.10;99.90;;;;;;4986052;28;20116;-52
2023/04/18 03:43:01;;;;;;;10.55;8.35;;;7.10;99.90;;;;;;4985875;28;20451;-55
2023/04/18 03:45:26;;;;;;;9.30;6.93;;;7.10;99.90;;;;;;4985468;28;20038;-54
2023/04/18 03:47:52;;;;;;;8.90;7.35;;;7.00;99.90;;;;;;4985903;28;20058;-53
2023/04/18 03:50:18;;;;;;;10.95;6.95;;;7.00;99.90;;;;;;4984857;28;20038;-57
2023/04/18 03:52:43;;;;;;;9.27;7.05;;;7.00;99.90;;;;;;4985786;28;20050;-60
2023/04/18 03:55:10;;;;;;;10.30;8.40;;;7.00;99.90;;;;;;4985908;28;20050;-55
2023/04/18 03:57:35;;;;;;;10.07;7.72;;;7.10;99.90;;;;;;4985865;28;20046;-55
2023/04/18 04:00:03;;;;;;;11.13;7.28;;;7.10;99.90;;;;;;4984874;28;20141;-55
2023/04/18 04:02:29;;;;;;;8.77;7.05;;;7.00;99.90;;;;;;4986075;28;20081;-57
2023/04/18 04:04:55;;;;;;;12.55;7.78;;;7.00;99.90;;;;;;4986215;28;20081;-59
2023/04/18 04:07:20;;;;;;;10.82;7.72;;;7.10;99.90;;;;;;4985208;28;20070;-60
2023/04/18 04:09:46;;;;;;;9.18;6.80;;;7.10;99.90;;;;;;4985644;28;20045;-57
2023/04/18 04:12:11;;;;;;;11.63;8.02;;;7.10;99.90;;;;;;4985971;28;20131;-58
2023/04/18 04:14:37;;;;;;;11.55;7.82;;;7.00;99.90;;;;;;4985038;28;20086;-57
2023/04/18 04:17:03;;;;;;;11.10;8.05;;;7.00;99.90;;;;;;4985321;28;20038;-53
2023/04/18 04:19:29;;;;;;;10.77;8.25;;;7.10;99.90;;;;;;4985666;28;20050;-55
2023/04/18 04:21:54;;;;;;;10.15;8.13;;;7.00;99.90;;;;;;4986139;28;20085;-51
2023/04/18 04:24:21;;;;;;;10.13;8.00;;;7.00;99.90;;;;;;4985933;28;20042;-58
2023/04/18 04:26:49;;;;;;;10.65;8.05;;;7.00;99.90;;;;;;4989728;28;20042;-49
2023/04/18 04:29:15;;;;;;;11.30;8.50;;;7.30;99.90;;;;;;4989849;28;20054;-54
2023/04/18 04:31:41;;;;;;;13.63;8.85;;;6.90;99.90;;;;;;4970758;28;20093;-54
2023/04/18 04:34:07;;;;;;;12.02;8.75;;;6.90;99.90;;;;;;4989481;28;20050;-49
2023/04/18 04:36:33;;;;;;;10.77;8.65;;;6.90;99.90;;;;;;4990539;28;20484;-58
2023/04/18 04:39:01;;;;;;;11.05;8.80;;;7.00;99.90;;;;;;4989721;28;20053;-46
2023/04/18 04:41:28;;;;;;;10.90;8.95;;;6.90;99.90;;;;;;4989611;28;20043;-56
2023/04/18 04:43:53;;;;;;;12.95;8.63;;;6.80;99.90;;;;;;4989022;28;20505;-59
2023/04/18 04:46:19;;;;;;;11.10;9.13;;;6.90;99.90;;;;;;4989169;28;20056;-48
2023/04/18 04:48:45;;;;;;;14.25;9.15;;;6.90;99.90;;;;;;4988771;28;20509;-59
2023/04/18 04:51:11;;;;;;;12.57;9.38;;;6.90;99.90;;;;;;4989738;28;20524;-59
2023/04/18 04:53:37;;;;;;;13.20;9.07;;;7.00;99.90;;;;;;4988960;28;20617;-49
2023/04/18 04:56:03;;;;;;;12.52;10.00;;;7.00;99.90;;;;;;4989655;28;20121;-59
2023/04/18 04:58:29;;;;;;;11.02;8.98;;;7.00;99.90;;;;;;4989279;28;20050;-59
2023/04/18 05:00:55;;;;;;;11.52;9.18;;;7.00;99.90;;;;;;4988249;28;20085;-59
2023/04/18 05:03:21;;;;;;;13.05;9.88;;;7.00;99.90;;;;;;4989022;28;20082;-56
2023/04/18 05:05:47;;;;;;;12.40;10.07;;;7.00;99.90;;;;;;4989460;28;20043;-56
2023/04/18 05:08:13;;;;;;;11.98;9.52;;;7.10;99.90;;;;;;4989623;28;20050;-59
2023/04/18 05:10:38;;;;;;;15.02;10.40;;;7.00;99.90;;;;;;4988925;28;20046;-49
2023/04/18 05:13:04;;;;;;;13.05;10.27;;;7.00;99.90;;;;;;4988780;28;20477;-54
2023/04/18 05:15:30;;;;;;;14.77;10.35;;;7.10;99.90;;;;;;4988336;28;20046;-55
2023/04/18 05:17:57;;;;;;;15.07;9.77;;;7.10;99.90;;;;;;4989016;28;20567;-55
2023/04/18 05:20:23;;;;;;;15.25;10.25;;;7.10;99.90;;;;;;4988508;28;20132;-57
2023/04/18 05:22:48;;;;;;;13.25;10.10;;;7.20;99.90;;;;;;4989165;28;20038;-56
2023/04/18 05:25:14;;;;;;;15.23;11.23;;;7.20;99.90;;;;;;5001413;28;20056;-56
2023/04/18 05:27:41;;;;;;;15.35;10.90;;;7.20;99.90;;;;;;5008545;28;20048;-55
2023/04/18 05:30:07;;;;;;;14.05;11.27;;;7.20;99.90;;;;;;5007537;28;20166;-62
2023/04/18 05:32:33;;;;;;;15.30;11.43;;;7.20;99.90;;;;;;5007369;28;20038;-60
2023/04/18 05:34:59;;;;;;;14.77;11.57;;;7.30;99.90;;;;;;5008143;28;20048;-60
2023/04/18 05:37:24;;;;;;;13.88;10.88;;;7.40;99.90;;;;;;5007347;28;20049;-61
2023/04/18 05:39:50;;;;;;;13.32;10.95;;;7.60;99.90;;;;;;5007776;28;20049;-59
2023/04/18 05:42:15;;;;;;;12.98;10.60;;;8.70;99.90;;;;;;5007567;28;20042;-60
2023/04/18 05:44:41;;;;;;;14.30;10.70;;;8.50;99.90;;;;;;5008122;28;20045;-59
2023/04/18 05:47:07;;;;;;;12.90;10.75;;;8.90;99.90;;;;;;5007528;28;20041;-61
2023/04/18 05:49:32;;;;;;;12.38;10.80;;;9.50;99.90;;;;;;5007551;28;20046;-61
2023/04/18 05:51:58;;;;;;;18.65;10.57;;;9.70;99.90;;;;;;5007247;28;20111;-55
2023/04/18 05:54:24;;;;;;;13.50;10.30;;;9.90;99.90;;;;;;5006949;28;20041;-53
2023/04/18 05:56:50;;;;;;;14.43;10.30;;;9.70;99.90;;;;;;5007740;28;20117;-51
2023/04/18 05:59:15;;;;;;;12.38;10.30;;;9.30;99.90;;;;;;5008159;28;20033;-54
2023/04/18 06:01:41;;;;;;;14.60;11.07;;;9.10;99.90;;;;;;5006667;28;20049;-57
2023/04/18 06:04:07;;;;;;;13.70;10.23;;;9.30;99.90;;;;;;5008142;28;20046;-59
2023/04/18 06:06:36;;;;;;;12.63;10.05;;;9.70;99.90;;;;;;5008085;28;20137;-52
2023/04/18 06:09:01;;;;;;;13.15;10.35;;;10.10;99.90;;;;;;5007975;28;20125;-58
2023/04/18 06:11:27;;;;;;;13.07;9.43;;;10.40;99.90;;;;;;5006801;28;20064;-56
2023/04/18 06:13:54;;;;;;;12.18;9.10;;;10.50;99.90;;;;;;5007387;28;20054;-60
2023/04/18 06:16:21;;;;;;;12.65;9.65;;;10.50;99.90;;;;;;5005331;28;20054;-57
2023/04/18 06:18:46;;;;;;;12.40;9.13;;;10.60;99.90;;;;;;5007179;28;20038;-57
2023/04/18 06:21:13;;;;;;;13.07;9.00;;;10.60;99.90;;;;;;5006985;28;20045;-60
2023/04/18 06:23:38;;;;;;;10.55;7.95;;;10.90;99.90;;;;;;5007769;28;20064;-57
2023/04/18 06:26:06;;;;;;;13.00;9.18;;;10.90;99.90;;;;;;5006706;28;20681;-51
2023/04/18 06:28:31;;;;;;;9.75;7.25;;;10.90;99.90;;;;;;5006808;28;20081;-59
2023/04/18 06:30:57;;;;;;;13.82;8.90;;;10.80;99.90;;;;;;5004082;28;20485;-60
2023/04/18 06:33:23;;;;;;;15.18;8.88;;;10.70;99.90;;;;;;5006089;28;20048;-59
2023/04/18 06:35:48;;;;;;;12.00;8.90;;;10.80;99.90;;;;;;5004176;28;20436;-59
2023/04/18 06:38:14;;;;;;;13.85;9.68;;;11.00;99.90;;;;;;5005788;28;20528;-59
2023/04/18 06:40:40;;;;;;;14.27;8.70;;;11.10;99.90;;;;;;5006244;28;20053;-61
2023/04/18 06:43:05;;;;;;;16.98;9.05;;;11.20;99.90;;;;;;5006674;28;20096;-59
2023/04/18 06:45:31;;;;;;;12.20;8.55;;;11.20;99.90;;;;;;5006324;28;20038;-58
2023/04/18 06:47:58;;;;;;;13.35;9.05;;;11.30;99.90;;;;;;5006684;28;20050;-58
2023/04/18 06:50:25;;;;;;;13.60;9.15;;;11.40;99.90;;;;;;5007351;28;20097;-53
2023/04/18 06:52:50;;;;;;;11.70;9.10;;;11.60;99.90;;;;;;5006657;28;20416;-59
2023/04/18 06:55:16;;;;;;;12.32;9.25;;;11.70;99.90;;;;;;5006679;28;20045;-55
2023/04/18 06:57:42;;;;;;;12.80;9.52;;;11.80;99.90;;;;;;5006631;28;20046;-55
2023/04/18 07:00:09;;;;;;;12.25;9.43;;;11.90;99.90;;;;;;5005200;28;20453;-50
2023/04/18 07:02:38;;;;;;;11.73;8.55;;;11.90;99.90;;;;;;5006144;28;20502;-56
2023/04/18 07:05:05;;;;;;;13.18;9.10;;;12.00;99.90;;;;;;5006714;28;20462;-56
2023/04/18 07:07:32;;;;;;;12.43;8.25;;;11.80;99.40;;;;;;5006354;28;20053;-57
2023/04/18 07:09:57;;;;;;;11.95;9.70;;;11.90;98.80;;;;;;5006542;28;20124;-58
2023/04/18 07:12:23;;;;;;;12.82;8.65;;;11.80;99.40;;;;;;5006428;28;20121;-52
2023/04/18 07:14:50;;;;;;;13.32;9.02;;;12.00;99.30;;;;;;5005628;28;20065;-54
2023/04/18 07:17:16;;;;;;;11.65;8.20;;;12.20;98.70;;;;;;5005798;28;20140;-52
2023/04/18 07:19:42;;;;;;;10.80;8.55;;;12.50;98.40;;;;;;5005689;28;20053;-56
2023/04/18 07:22:08;;;;;;;14.05;8.82;;;12.40;98.20;;;;;;5004787;28;20503;-50
2023/04/18 07:24:34;;;;;;;11.75;8.80;;;12.50;97.80;;;;;;4986306;28;20089;-57
2023/04/18 07:27:00;;;;;;;13.38;8.85;;;12.70;97.60;;;;;;4986340;28;20535;-59
2023/04/18 07:29:26;;;;;;;13.05;8.70;;;12.70;97.10;;;;;;4986597;28;20165;-60
2023/04/18 07:31:52;;;;;;;11.88;8.30;;;12.70;96.80;;;;;;4985667;28;20132;-46
2023/04/18 07:34:17;;;;;;;11.05;8.07;;;12.70;96.70;;;;;;4986201;28;20046;-59
2023/04/18 07:36:43;;;;;;;10.85;8.52;;;12.60;95.80;;;;;;4985199;28;20046;-57
2023/04/18 07:39:09;;;;;;;13.95;8.30;;;12.50;95.40;;;;;;4986108;28;20065;-60
2023/04/18 07:41:34;;;;;;;11.25;8.48;;;12.40;95.70;;;;;;4985619;28;20099;-58
2023/04/18 07:44:01;;;;;;;11.93;8.80;;;12.50;95.70;;;;;;4986182;28;20043;-58
2023/04/18 07:46:27;;;;;;;12.82;8.80;;;12.80;95.20;;;;;;4985909;28;20050;-59
2023/04/18 07:48:52;;;;;;;12.57;8.15;;;13.00;94.90;;;;;;4985385;28;20058;-56
2023/04/18 07:51:18;;;;;;;9.57;7.90;;;13.10;94.20;;;;;;4986234;28;20408;-54
2023/04/18 07:53:44;;;;;;;14.50;7.93;;;13.10;94.70;;;;;;4986404;28;20053;-55
2023/04/18 07:56:11;;;;;;;9.63;6.70;;;13.20;94.40;;;;;;4985739;28;20043;-53
2023/04/18 07:58:37;;;;;;;13.45;7.45;;;13.20;93.70;;;;;;4985315;28;20061;-54
2023/04/18 08:01:03;;;;;;;10.82;7.90;;;13.10;93.50;;;;;;4995046;28;20042;-56
2023/04/18 08:03:28;;;;;;;9.35;6.45;;;13.20;93.60;;;;;;5005783;28;20038;-56
2023/04/18 08:05:54;;;;;;;11.73;7.68;;;13.10;92.60;;;;;;5003811;28;20468;-55
2023/04/18 08:08:20;;;;;;;12.68;7.75;;;13.10;92.70;;;;;;5006019;28;20049;-59
2023/04/18 08:10:46;;;;;;;9.90;5.85;;;13.20;93.10;;;;;;5004242;28;20581;-59
2023/04/18 08:13:12;;;;;;;11.90;8.10;;;13.10;92.00;;;;;;5004892;28;20801;-55
2023/04/18 08:15:39;;;;;;;10.80;7.00;;;13.10;92.00;;;;;;5004474;28;20140;-60
2023/04/18 08:18:04;;;;;;;11.05;7.00;;;12.90;92.20;;;;;;5005052;28;20057;-57
2023/04/18 08:20:30;;;;;;;10.48;7.70;;;13.00;92.80;;;;;;5005383;28;20034;-62
2023/04/18 08:22:56;;;;;;;9.77;6.47;;;13.00;92.20;;;;;;5003180;28;20500;-60
2023/04/18 08:25:22;;;;;;;10.18;7.78;;;13.10;92.20;;;;;;4994086;28;20053;-57
2023/04/18 08:27:47;;;;;;;11.57;7.00;;;13.20;92.30;;;;;;4986440;28;20053;-57
2023/04/18 08:30:13;;;;;;;12.35;7.53;;;13.20;92.20;;;;;;4984248;28;20050;-58
2023/04/18 08:32:39;;;;;;;12.25;7.90;;;13.40;92.10;;;;;;4985439;28;20057;-58
2023/04/18 08:35:05;;;;;;;8.77;6.65;;;13.50;92.20;;;;;;4985662;28;20042;-56
2023/04/18 08:37:34;;;;;;;8.73;4.20;;;13.60;91.80;;;;;;4986294;28;20042;-53
2023/04/18 08:40:00;;;;;;;13.98;6.75;;;13.40;91.60;;;;;;4985080;28;20046;-57
2023/04/18 08:42:26;;;;;;;9.65;6.90;;;13.30;90.90;;;;;;4985592;28;20086;-55
2023/04/18 08:44:52;;;;;;;7.32;5.15;;;13.30;92.10;;;;;;4984456;28;20082;-55
2023/04/18 08:47:19;;;;;;;11.43;7.32;;;13.30;90.90;;;;;;4984457;28;20086;-54
2023/04/18 08:49:45;;;;;;;9.25;7.22;;;13.30;91.70;;;;;;4986041;28;20053;-56
2023/04/18 08:52:13;;;;;;;11.52;7.28;;;13.30;91.80;;;;;;4985442;28;20082;-47
2023/04/18 08:54:46;;;;;;;9.73;5.38;;;13.60;92.50;;;;;;4984258;28;20130;-56
2023/04/18 08:57:17;;;;;;;11.05;6.38;;;13.50;90.90;;;;;;4985809;28;20053;-61
2023/04/18 08:59:44;;;;;;;10.88;7.25;;;13.60;91.40;;;;;;4985312;28;20046;-61
2023/04/18 09:02:11;;;;;;;11.07;7.70;;;13.70;91.70;;;;;;4984325;28;20039;-59
2023/04/18 09:04:47;;;;;;;8.85;6.15;;;13.60;91.20;;;;;;4986151;28;20046;-59
2023/04/18 09:07:14;;;;;;;9.43;6.35;;;13.60;91.40;;;;;;4985055;28;20681;-59
2023/04/18 09:09:50;;;;;;;11.10;6.63;;;13.60;91.60;;;;;;4984669;28;20116;-60
2023/04/18 09:12:17;;;;;;;9.43;7.13;;;13.80;92.10;;;;;;4988502;28;20393;-62
2023/04/18 09:14:45;;;;;;;10.23;6.65;;;13.80;91.80;;;;;;4987538;28;20145;-62
2023/04/18 09:17:13;;;;;;;10.20;7.20;;;13.90;91.60;;;;;;4989130;28;20561;-61
2023/04/18 09:19:47;;;;;;;8.57;6.50;;;14.20;92.10;;;;;;4988672;28;20045;-64
2023/04/18 09:22:13;;;;;;;9.20;5.82;;;14.20;91.10;;;;;;4988686;28;20047;-58
2023/04/18 09:24:49;;;;;;;12.68;6.70;;;14.10;90.60;;;;;;4988191;28;20057;-56
2023/04/18 09:27:14;;;;;;;13.60;7.30;;;14.00;90.30;;;;;;4988296;28;20049;-59
2023/04/18 09:29:45;;;;;;;8.95;6.60;;;13.90;91.50;;;;;;4987467;28;20042;-63
2023/04/18 09:32:26;;;;;;;8.73;6.78;;;14.20;90.90;;;;;;4988032;28;20126;-59
2023/04/18 09:35:04;;;;;;;8.75;5.25;;;14.20;90.90;;;;;;4988861;28;20050;-62
2023/04/18 09:37:30;;;;;;;11.43;7.60;;;14.40;90.70;;;;;;4988568;28;20042;-59
2023/04/18 09:39:55;;;;;;;10.25;7.32;;;14.40;90.80;;;;;;4988795;28;20117;-61
2023/04/18 09:42:21;;;;;;;12.43;6.10;;;14.50;90.70;;;;;;4988617;28;20093;-62
2023/04/18 09:45:06;;;;;;;11.73;7.35;;;14.40;90.30;;;;;;4987080;28;20473;-61
2023/04/18 09:47:36;;;;;;;10.10;7.70;;;14.50;90.70;;;;;;4988843;28;20050;-62
2023/04/18 09:50:03;;;;;;;12.93;6.63;;;14.70;91.40;;;;;;4987715;28;20061;-61
2023/04/18 09:52:39;;;;;;;8.93;5.20;;;14.80;90.80;;;;;;4987764;28;20560;-62
2023/04/18 09:55:10;;;;;;;9.07;5.18;;;14.90;90.20;;;;;;4987558;28;20083;-61
2023/04/18 09:57:39;;;;;;;16.58;6.63;;;15.00;90.30;;;;;;4987051;28;20046;-60
2023/04/18 10:00:12;;;;;;;6.95;4.82;;;15.00;90.60;;;;;;4986043;28;20053;-62
2023/04/18 10:02:55;;;;;;;7.13;5.40;;;14.80;90.10;;;;;;4987332;28;20120;-61
2023/04/18 10:05:24;;;;;;;9.43;7.22;;;14.70;90.70;;;;;;4988079;28;20046;-59
2023/04/18 10:07:53;;;;;;;10.13;7.03;;;14.90;91.80;;;;;;4986790;28;20046;-62
2023/04/18 10:10:18;;;;;;;9.13;5.95;;;15.20;91.80;;;;;;4986873;28;20185;-62
2023/04/18 10:12:46;;;;;;;9.57;6.40;;;15.50;91.20;;;;;;4987302;28;20126;-55
2023/04/18 10:15:14;;;;;;;8.90;6.45;;;15.70;91.30;;;;;;4986268;28;20062;-55
2023/04/18 10:17:56;;;;;;;9.18;6.25;;;15.80;91.30;;;;;;4988089;28;20038;-62
2023/04/18 10:20:27;;;;;;;8.77;7.05;;;15.80;91.20;;;;;;4986020;28;20707;-60
2023/04/18 10:22:54;;;;;;;8.73;6.13;;;15.90;90.70;;;;;;4986652;28;20087;-59
2023/04/18 10:25:37;;;;;;;9.48;6.40;;;16.00;91.20;;;;;;4987905;28;20046;-63
2023/04/18 10:28:07;;;;;;;13.27;7.32;;;16.10;90.50;;;;;;4986690;28;20081;-57
2023/04/18 10:31:03;;;;;;;8.20;6.32;;;16.10;91.70;;;;;;4986249;28;20061;-61
2023/04/18 10:33:29;;;;;;;10.50;6.53;;;16.10;91.20;;;;;;4986152;28;20097;-63
2023/04/18 10:36:11;;;;;;;8.38;4.97;;;16.00;91.10;;;;;;4986239;28;20074;-62
2023/04/18 10:38:44;;;;;;;7.20;4.80;;;16.00;90.90;;;;;;4986610;28;20051;-62
2023/04/18 10:41:13;;;;;;;9.88;6.05;;;15.70;90.80;;;;;;4987441;28;20042;-59
2023/04/18 10:44:07;;;;;;;10.00;6.20;;;15.50;91.10;;;;;;4987323;28;20089;-61
2023/04/18 10:46:36;;;;;;;8.75;6.25;;;15.60;90.80;;;;;;4986937;28;20042;-61
2023/04/18 10:49:15;;;;;;;9.65;5.80;;;15.70;91.10;;;;;;4986225;28;20064;-58
2023/04/18 10:51:43;;;;;;;7.78;5.85;;;15.80;91.00;;;;;;4987438;28;20103;-62
2023/04/18 10:54:11;;;;;;;10.07;7.15;;;15.80;91.10;;;;;;4986808;28;20703;-61
2023/04/18 10:56:38;;;;;;;7.93;5.40;;;15.70;91.20;;;;;;4986307;28;20049;-62
2023/04/18 10:59:04;;;;;;;8.70;6.78;;;15.50;91.40;;;;;;4986235;28;20046;-63
2023/04/18 11:01:31;;;;;;;9.05;6.45;;;15.50;92.10;;;;;;4986093;28;20046;-62
2023/04/18 11:03:57;;;;;;;9.38;7.47;;;15.60;91.90;;;;;;4986918;28;20610;-58
2023/04/18 11:06:27;;;;;;;9.95;6.90;;;15.70;91.90;;;;;;4984872;28;20474;-62
2023/04/18 11:09:12;;;;;;;9.45;7.07;;;15.80;91.60;;;;;;4987374;28;20112;-60
2023/04/18 11:11:38;;;;;;;8.32;7.15;;;15.50;90.80;;;;;;4985502;28;20050;-62
2023/04/18 11:14:04;;;;;;;8.70;6.50;;;15.40;91.90;;;;;;4985734;28;20055;-61
2023/04/18 11:16:31;;;;;;;8.07;5.75;;;15.50;92.20;;;;;;4986636;28;20042;-58
2023/04/18 11:18:57;;;;;;;8.60;5.80;;;15.60;92.30;;;;;;4987015;28;20100;-59
2023/04/18 11:21:27;;;;;;;10.68;6.05;;;15.80;92.10;;;;;;4986633;28;20046;-57
2023/04/18 11:23:56;;;;;;;9.65;5.28;;;15.80;91.90;;;;;;4984866;28;20038;-62
2023/04/18 11:26:26;;;;;;;9.02;6.18;;;15.90;92.10;;;;;;4985704;28;20050;-62
2023/04/18 11:28:57;;;;;;;6.85;4.90;;;15.90;92.00;;;;;;4984433;28;20129;-55
2023/04/18 11:31:24;;;;;;;6.60;5.55;;;16.00;91.90;;;;;;4986456;28;20134;-59
2023/04/18 11:33:50;;;;;;;7.07;5.90;;;15.90;91.70;;;;;;4985193;28;20050;-58
2023/04/18 11:36:16;;;;;;;10.00;5.63;;;15.90;91.80;;;;;;4986119;28;20042;-57
2023/04/18 11:38:42;;;;;;;6.05;5.28;;;16.10;91.50;;;;;;4986304;28;20448;-57
2023/04/18 11:41:12;;;;;;;6.80;4.68;;;16.20;92.30;;;;;;4986010;28;20046;-56
2023/04/18 11:43:44;;;;;;;4.72;3.47;;;16.10;91.00;;;;;;4986006;28;20046;-60
2023/04/18 11:46:12;;;;;;;5.38;3.90;;;15.90;91.00;;;;;;4984740;28;20069;-61
2023/04/18 11:48:41;;;;;;;4.65;3.40;;;15.80;91.90;;;;;;4985633;28;20159;-60
2023/04/18 11:51:31;;;;;;;5.05;3.20;;;15.70;91.30;;;;;;4984702;28;20358;-60
2023/04/18 11:53:57;;;;;;;6.18;3.85;;;15.60;91.50;;;;;;4985523;28;21175;-60
2023/04/18 11:56:23;;;;;;;5.57;4.30;;;15.50;91.40;;;;;;4986099;28;20042;-62
2023/04/18 11:58:48;;;;;;;5.97;4.90;;;15.50;92.00;;;;;;4984689;28;20046;-59
2023/04/18 12:01:19;;;;;;;4.60;3.40;;;15.50;91.80;;;;;;4985388;28;20042;-66
2023/04/18 12:04:05;;;;;;;6.25;4.80;;;15.40;91.20;;;;;;4996193;28;20042;-61
2023/04/18 12:06:51;;;;;;;5.53;3.55;;;15.50;92.10;;;;;;5006201;28;20041;-59
2023/04/18 12:09:17;;;;;;;5.15;4.00;;;15.30;91.30;;;;;;5005304;28;20105;-62
2023/04/18 12:11:55;;;;;;;6.80;4.32;;;15.20;92.80;;;;;;5004133;28;20064;-63
2023/04/18 12:14:21;;;;;;;5.00;3.75;;;15.30;92.30;;;;;;5004844;28;21566;-64
2023/04/18 12:16:50;;;;;;;4.60;3.20;;;15.30;92.30;;;;;;5004820;28;20148;-64
2023/04/18 12:19:16;;;;;;;8.85;3.55;;;15.50;92.80;;;;;;5005171;28;20409;-62
2023/04/18 12:22:05;;;;;;;3.90;3.20;;;15.80;93.40;;;;;;5004924;28;20061;-66
2023/04/18 12:24:31;;;;;;;6.53;3.60;;;15.80;92.50;;;;;;5005721;28;20455;-63
2023/04/18 12:27:00;;;;;;;5.38;3.95;;;15.60;93.10;;;;;;5004881;28;20427;-61
2023/04/18 12:29:27;;;;;;;4.80;4.00;;;15.40;93.00;;;;;;5004999;28;20054;-59
2023/04/18 12:31:53;;;;;;;7.13;4.18;;;15.40;93.60;;;;;;5005183;28;20072;-62
2023/04/18 12:34:18;;;;;;;6.28;3.90;;;15.40;94.10;;;;;;5004354;28;20042;-58
2023/04/18 12:36:45;;;;;;;7.15;4.13;;;15.20;93.70;;;;;;5003595;28;20038;-61
2023/04/18 12:39:10;;;;;;;5.03;3.80;;;15.20;93.60;;;;;;5004872;28;20046;-59
2023/04/18 12:41:36;;;;;;;5.72;4.15;;;15.40;93.60;;;;;;5004393;28;20072;-58
2023/04/18 12:44:02;;;;;;;5.57;4.30;;;15.60;92.80;;;;;;5003931;28;20468;-66